sensor_id;sensor_type;location;lat;lon;timestamp;P1;durP1;ratioP1;P2;durP2;ratioP2
73661;SDS011;61956;52.540;13.382;2022-10-30T00:01:28;8.05;;;3.80;;
73661;SDS011;61956;52.540;13.382;2022-10-30T00:03:57;8.02;;;2.85;;
73661;SDS011;61956;52.540;13.382;2022-10-30T00:06:26;10.52;;;4.22;;
73661;SDS011;61956;52.540;13.382;2022-10-30T00:08:58;6.75;;;3.33;;
73661;SDS011;61956;52.540;13.382;2022-10-30T00:11:27;7.65;;;3.10;;
73661;SDS011;61956;52.540;13.382;2022-10-30T00:13:56;9.68;;;4.45;;
73661;SDS011;61956;52.540;13.382;2022-10-30T00:16:25;6.35;;;3.08;;
73661;SDS011;61956;52.540;13.382;2022-10-30T00:18:54;9.98;;;3.45;;
73661;SDS011;61956;52.540;13.382;2022-10-30T00:21:24;10.13;;;3.50;;
73661;SDS011;61956;52.540;13.382;2022-10-30T00:23:53;7.45;;;3.10;;
73661;SDS011;61956;52.540;13.382;2022-10-30T00:26:25;9.15;;;3.92;;
73661;SDS011;61956;52.540;13.382;2022-10-30T00:28:56;12.15;;;3.80;;
73661;SDS011;61956;52.540;13.382;2022-10-30T00:31:25;8.57;;;3.55;;
73661;SDS011;61956;52.540;13.382;2022-10-30T00:33:55;11.33;;;4.20;;
73661;SDS011;61956;52.540;13.382;2022-10-30T00:36:24;6.40;;;3.08;;
73661;SDS011;61956;52.540;13.382;2022-10-30T00:38:53;8.27;;;3.20;;
73661;SDS011;61956;52.540;13.382;2022-10-30T00:41:25;9.43;;;3.67;;
73661;SDS011;61956;52.540;13.382;2022-10-30T00:43:54;8.10;;;3.22;;
73661;SDS011;61956;52.540;13.382;2022-10-30T00:46:23;10.37;;;4.00;;
73661;SDS011;61956;52.540;13.382;2022-10-30T00:48:59;6.40;;;2.58;;
73661;SDS011;61956;52.540;13.382;2022-10-30T00:51:36;7.65;;;2.92;;
73661;SDS011;61956;52.540;13.382;2022-10-30T00:54:10;8.90;;;3.38;;
73661;SDS011;61956;52.540;13.382;2022-10-30T00:56:45;7.40;;;3.60;;
73661;SDS011;61956;52.540;13.382;2022-10-30T00:59:17;6.77;;;2.77;;
73661;SDS011;61956;52.540;13.382;2022-10-30T01:01:52;9.50;;;4.22;;
73661;SDS011;61956;52.540;13.382;2022-10-30T01:04:22;11.50;;;5.15;;
73661;SDS011;61956;52.540;13.382;2022-10-30T01:06:52;13.18;;;4.20;;
73661;SDS011;61956;52.540;13.382;2022-10-30T01:09:22;9.48;;;3.45;;
73661;SDS011;61956;52.540;13.382;2022-10-30T01:11:54;8.73;;;3.20;;
73661;SDS011;61956;52.540;13.382;2022-10-30T01:14:23;11.93;;;4.38;;
73661;SDS011;61956;52.540;13.382;2022-10-30T01:16:57;10.15;;;2.65;;
73661;SDS011;61956;52.540;13.382;2022-10-30T01:19:47;8.52;;;3.72;;
73661;SDS011;61956;52.540;13.382;2022-10-30T01:22:38;11.15;;;4.03;;
73661;SDS011;61956;52.540;13.382;2022-10-30T01:25:29;12.70;;;5.20;;
73661;SDS011;61956;52.540;13.382;2022-10-30T01:28:23;9.50;;;4.38;;
73661;SDS011;61956;52.540;13.382;2022-10-30T01:31:12;10.73;;;4.45;;
73661;SDS011;61956;52.540;13.382;2022-10-30T01:33:56;10.65;;;4.50;;
73661;SDS011;61956;52.540;13.382;2022-10-30T01:36:39;6.78;;;3.65;;
73661;SDS011;61956;52.540;13.382;2022-10-30T01:39:17;9.60;;;3.90;;
73661;SDS011;61956;52.540;13.382;2022-10-30T01:41:50;8.68;;;3.67;;
73661;SDS011;61956;52.540;13.382;2022-10-30T01:44:24;8.23;;;3.08;;
73661;SDS011;61956;52.540;13.382;2022-10-30T01:47:02;8.95;;;3.88;;
73661;SDS011;61956;52.540;13.382;2022-10-30T01:49:54;8.75;;;4.63;;
73661;SDS011;61956;52.540;13.382;2022-10-30T01:52:41;10.48;;;4.78;;
73661;SDS011;61956;52.540;13.382;2022-10-30T01:55:26;9.82;;;3.92;;
73661;SDS011;61956;52.540;13.382;2022-10-30T01:58:05;9.40;;;4.10;;
73661;SDS011;61956;52.540;13.382;2022-10-30T02:00:52;13.55;;;4.72;;
73661;SDS011;61956;52.540;13.382;2022-10-30T02:03:28;10.23;;;4.70;;
73661;SDS011;61956;52.540;13.382;2022-10-30T02:05:58;8.07;;;3.83;;
73661;SDS011;61956;52.540;13.382;2022-10-30T02:08:28;9.00;;;3.45;;
73661;SDS011;61956;52.540;13.382;2022-10-30T02:10:58;10.98;;;4.15;;
73661;SDS011;61956;52.540;13.382;2022-10-30T02:13:35;10.32;;;3.75;;
73661;SDS011;61956;52.540;13.382;2022-10-30T02:16:09;11.23;;;4.00;;
73661;SDS011;61956;52.540;13.382;2022-10-30T02:18:40;10.37;;;3.57;;
73661;SDS011;61956;52.540;13.382;2022-10-30T02:21:12;8.95;;;4.45;;
73661;SDS011;61956;52.540;13.382;2022-10-30T02:23:44;7.13;;;3.00;;
73661;SDS011;61956;52.540;13.382;2022-10-30T02:26:14;13.77;;;5.93;;
73661;SDS011;61956;52.540;13.382;2022-10-30T02:28:43;11.13;;;4.50;;
73661;SDS011;61956;52.540;13.382;2022-10-30T02:31:12;11.70;;;4.93;;
73661;SDS011;61956;52.540;13.382;2022-10-30T02:33:44;7.93;;;3.50;;
73661;SDS011;61956;52.540;13.382;2022-10-30T02:36:16;6.90;;;3.45;;
73661;SDS011;61956;52.540;13.382;2022-10-30T02:38:46;11.95;;;4.28;;
73661;SDS011;61956;52.540;13.382;2022-10-30T02:41:15;9.63;;;4.60;;
73661;SDS011;61956;52.540;13.382;2022-10-30T02:43:45;9.38;;;4.60;;
73661;SDS011;61956;52.540;13.382;2022-10-30T02:46:14;9.65;;;3.90;;
73661;SDS011;61956;52.540;13.382;2022-10-30T02:48:43;8.73;;;4.03;;
73661;SDS011;61956;52.540;13.382;2022-10-30T02:51:12;12.30;;;5.05;;
73661;SDS011;61956;52.540;13.382;2022-10-30T02:53:44;11.10;;;4.25;;
73661;SDS011;61956;52.540;13.382;2022-10-30T02:56:14;7.00;;;3.22;;
73661;SDS011;61956;52.540;13.382;2022-10-30T02:58:44;9.55;;;3.47;;
73661;SDS011;61956;52.540;13.382;2022-10-30T03:01:14;7.95;;;4.50;;
73661;SDS011;61956;52.540;13.382;2022-10-30T03:03:46;7.47;;;3.95;;
73661;SDS011;61956;52.540;13.382;2022-10-30T03:06:15;10.98;;;3.35;;
73661;SDS011;61956;52.540;13.382;2022-10-30T03:08:47;12.57;;;5.68;;
73661;SDS011;61956;52.540;13.382;2022-10-30T03:11:17;10.63;;;5.15;;
73661;SDS011;61956;52.540;13.382;2022-10-30T03:13:48;7.50;;;2.65;;
73661;SDS011;61956;52.540;13.382;2022-10-30T03:16:18;7.88;;;3.15;;
73661;SDS011;61956;52.540;13.382;2022-10-30T03:18:50;8.77;;;3.95;;
73661;SDS011;61956;52.540;13.382;2022-10-30T03:21:21;6.83;;;2.90;;
73661;SDS011;61956;52.540;13.382;2022-10-30T03:23:55;7.68;;;3.58;;
73661;SDS011;61956;52.540;13.382;2022-10-30T03:26:24;8.77;;;3.88;;
73661;SDS011;61956;52.540;13.382;2022-10-30T03:28:59;13.30;;;4.75;;
73661;SDS011;61956;52.540;13.382;2022-10-30T03:31:29;7.50;;;3.28;;
73661;SDS011;61956;52.540;13.382;2022-10-30T03:34:18;8.97;;;3.43;;
73661;SDS011;61956;52.540;13.382;2022-10-30T03:36:47;6.80;;;2.58;;
73661;SDS011;61956;52.540;13.382;2022-10-30T03:39:19;9.80;;;2.70;;
73661;SDS011;61956;52.540;13.382;2022-10-30T03:41:48;9.77;;;3.05;;
73661;SDS011;61956;52.540;13.382;2022-10-30T03:44:17;8.35;;;2.85;;
73661;SDS011;61956;52.540;13.382;2022-10-30T03:46:47;5.23;;;2.77;;
73661;SDS011;61956;52.540;13.382;2022-10-30T03:49:22;4.97;;;1.98;;
73661;SDS011;61956;52.540;13.382;2022-10-30T03:51:52;9.60;;;3.90;;
73661;SDS011;61956;52.540;13.382;2022-10-30T03:54:26;8.25;;;3.38;;
73661;SDS011;61956;52.540;13.382;2022-10-30T03:56:55;11.65;;;4.65;;
73661;SDS011;61956;52.540;13.382;2022-10-30T03:59:27;8.80;;;3.40;;
73661;SDS011;61956;52.540;13.382;2022-10-30T04:02:19;10.85;;;4.18;;
73661;SDS011;61956;52.540;13.382;2022-10-30T04:04:48;5.05;;;2.13;;
73661;SDS011;61956;52.540;13.382;2022-10-30T04:07:17;6.57;;;2.47;;
73661;SDS011;61956;52.540;13.382;2022-10-30T04:09:49;10.90;;;3.65;;
73661;SDS011;61956;52.540;13.382;2022-10-30T04:12:18;9.03;;;4.27;;
73661;SDS011;61956;52.540;13.382;2022-10-30T04:14:48;9.02;;;3.33;;
73661;SDS011;61956;52.540;13.382;2022-10-30T04:17:18;9.05;;;3.65;;
73661;SDS011;61956;52.540;13.382;2022-10-30T04:19:47;8.80;;;3.35;;
73661;SDS011;61956;52.540;13.382;2022-10-30T04:22:16;7.45;;;2.85;;
73661;SDS011;61956;52.540;13.382;2022-10-30T04:24:45;8.90;;;3.60;;
73661;SDS011;61956;52.540;13.382;2022-10-30T04:27:18;9.05;;;3.53;;
73661;SDS011;61956;52.540;13.382;2022-10-30T04:29:48;8.30;;;3.60;;
73661;SDS011;61956;52.540;13.382;2022-10-30T04:32:17;9.30;;;3.33;;
73661;SDS011;61956;52.540;13.382;2022-10-30T04:34:47;4.18;;;1.77;;
73661;SDS011;61956;52.540;13.382;2022-10-30T04:37:17;12.57;;;4.07;;
73661;SDS011;61956;52.540;13.382;2022-10-30T04:39:49;10.48;;;3.65;;
73661;SDS011;61956;52.540;13.382;2022-10-30T04:42:23;6.25;;;2.97;;
73661;SDS011;61956;52.540;13.382;2022-10-30T04:44:52;11.60;;;4.50;;
73661;SDS011;61956;52.540;13.382;2022-10-30T04:47:22;8.70;;;3.13;;
73661;SDS011;61956;52.540;13.382;2022-10-30T04:49:51;8.30;;;3.77;;
73661;SDS011;61956;52.540;13.382;2022-10-30T04:52:21;7.72;;;3.38;;
73661;SDS011;61956;52.540;13.382;2022-10-30T04:54:52;6.30;;;2.92;;
73661;SDS011;61956;52.540;13.382;2022-10-30T04:57:21;9.63;;;3.75;;
73661;SDS011;61956;52.540;13.382;2022-10-30T04:59:51;8.82;;;3.80;;
73661;SDS011;61956;52.540;13.382;2022-10-30T05:02:20;5.10;;;2.42;;
73661;SDS011;61956;52.540;13.382;2022-10-30T05:04:49;7.35;;;3.58;;
73661;SDS011;61956;52.540;13.382;2022-10-30T05:07:18;9.02;;;2.67;;
73661;SDS011;61956;52.540;13.382;2022-10-30T05:09:48;12.18;;;2.97;;
73661;SDS011;61956;52.540;13.382;2022-10-30T05:12:20;6.22;;;2.72;;
73661;SDS011;61956;52.540;13.382;2022-10-30T05:14:52;8.90;;;3.47;;
73661;SDS011;61956;52.540;13.382;2022-10-30T05:17:22;8.15;;;3.80;;
73661;SDS011;61956;52.540;13.382;2022-10-30T05:19:51;6.75;;;2.70;;
73661;SDS011;61956;52.540;13.382;2022-10-30T05:22:21;8.75;;;3.13;;
73661;SDS011;61956;52.540;13.382;2022-10-30T05:24:50;11.35;;;3.85;;
73661;SDS011;61956;52.540;13.382;2022-10-30T05:27:23;8.48;;;3.50;;
73661;SDS011;61956;52.540;13.382;2022-10-30T05:29:52;8.98;;;3.28;;
73661;SDS011;61956;52.540;13.382;2022-10-30T05:32:22;9.25;;;3.45;;
73661;SDS011;61956;52.540;13.382;2022-10-30T05:34:53;8.40;;;3.38;;
73661;SDS011;61956;52.540;13.382;2022-10-30T05:37:22;9.05;;;3.80;;
73661;SDS011;61956;52.540;13.382;2022-10-30T05:39:51;7.90;;;3.85;;
73661;SDS011;61956;52.540;13.382;2022-10-30T05:42:28;8.85;;;4.07;;
73661;SDS011;61956;52.540;13.382;2022-10-30T05:45:00;9.38;;;3.50;;
73661;SDS011;61956;52.540;13.382;2022-10-30T05:47:33;9.70;;;3.10;;
73661;SDS011;61956;52.540;13.382;2022-10-30T05:50:03;11.77;;;3.85;;
73661;SDS011;61956;52.540;13.382;2022-10-30T05:52:34;6.03;;;2.58;;
73661;SDS011;61956;52.540;13.382;2022-10-30T05:55:04;9.10;;;3.33;;
73661;SDS011;61956;52.540;13.382;2022-10-30T05:58:00;5.85;;;2.40;;
73661;SDS011;61956;52.540;13.382;2022-10-30T06:00:34;8.65;;;4.00;;
73661;SDS011;61956;52.540;13.382;2022-10-30T06:03:06;8.57;;;3.58;;
73661;SDS011;61956;52.540;13.382;2022-10-30T06:05:42;6.78;;;3.28;;
73661;SDS011;61956;52.540;13.382;2022-10-30T06:08:14;10.00;;;3.63;;
73661;SDS011;61956;52.540;13.382;2022-10-30T06:10:47;8.07;;;3.00;;
73661;SDS011;61956;52.540;13.382;2022-10-30T06:13:23;9.60;;;3.00;;
73661;SDS011;61956;52.540;13.382;2022-10-30T06:15:59;8.43;;;2.25;;
73661;SDS011;61956;52.540;13.382;2022-10-30T06:18:46;5.53;;;2.35;;
73661;SDS011;61956;52.540;13.382;2022-10-30T06:21:16;12.70;;;3.60;;
73661;SDS011;61956;52.540;13.382;2022-10-30T06:24:08;8.75;;;3.55;;
73661;SDS011;61956;52.540;13.382;2022-10-30T06:26:42;9.15;;;3.65;;
73661;SDS011;61956;52.540;13.382;2022-10-30T06:29:15;7.95;;;2.22;;
73661;SDS011;61956;52.540;13.382;2022-10-30T06:31:45;9.73;;;3.35;;
73661;SDS011;61956;52.540;13.382;2022-10-30T06:34:14;6.68;;;2.10;;
73661;SDS011;61956;52.540;13.382;2022-10-30T06:36:43;9.85;;;4.03;;
73661;SDS011;61956;52.540;13.382;2022-10-30T06:39:12;3.15;;;1.42;;
73661;SDS011;61956;52.540;13.382;2022-10-30T06:41:54;6.85;;;2.85;;
73661;SDS011;61956;52.540;13.382;2022-10-30T06:44:46;10.33;;;2.90;;
73661;SDS011;61956;52.540;13.382;2022-10-30T06:47:16;8.82;;;2.70;;
73661;SDS011;61956;52.540;13.382;2022-10-30T06:49:46;5.57;;;2.22;;
73661;SDS011;61956;52.540;13.382;2022-10-30T06:52:16;9.27;;;2.35;;
73661;SDS011;61956;52.540;13.382;2022-10-30T06:54:48;6.45;;;2.25;;
73661;SDS011;61956;52.540;13.382;2022-10-30T06:57:37;7.53;;;3.28;;
73661;SDS011;61956;52.540;13.382;2022-10-30T07:00:30;10.10;;;3.10;;
73661;SDS011;61956;52.540;13.382;2022-10-30T07:03:17;7.43;;;2.58;;
73661;SDS011;61956;52.540;13.382;2022-10-30T07:05:46;6.65;;;2.20;;
73661;SDS011;61956;52.540;13.382;2022-10-30T07:08:18;6.72;;;3.33;;
73661;SDS011;61956;52.540;13.382;2022-10-30T07:10:48;9.77;;;2.95;;
73661;SDS011;61956;52.540;13.382;2022-10-30T07:13:35;8.68;;;3.47;;
73661;SDS011;61956;52.540;13.382;2022-10-30T07:16:26;7.63;;;3.10;;
73661;SDS011;61956;52.540;13.382;2022-10-30T07:18:55;5.55;;;2.05;;
73661;SDS011;61956;52.540;13.382;2022-10-30T07:21:25;7.05;;;2.45;;
73661;SDS011;61956;52.540;13.382;2022-10-30T07:23:54;6.10;;;1.92;;
73661;SDS011;61956;52.540;13.382;2022-10-30T07:26:28;7.63;;;2.83;;
73661;SDS011;61956;52.540;13.382;2022-10-30T07:29:03;4.57;;;1.73;;
73661;SDS011;61956;52.540;13.382;2022-10-30T07:31:47;7.15;;;2.95;;
73661;SDS011;61956;52.540;13.382;2022-10-30T07:34:32;3.67;;;1.73;;
73661;SDS011;61956;52.540;13.382;2022-10-30T07:37:28;5.10;;;2.17;;
73661;SDS011;61956;52.540;13.382;2022-10-30T07:40:04;5.20;;;2.35;;
73661;SDS011;61956;52.540;13.382;2022-10-30T07:42:57;8.68;;;2.50;;
73661;SDS011;61956;52.540;13.382;2022-10-30T07:46:04;5.30;;;1.58;;
73661;SDS011;61956;52.540;13.382;2022-10-30T07:49:14;6.20;;;2.50;;
73661;SDS011;61956;52.540;13.382;2022-10-30T07:51:55;8.45;;;2.88;;
73661;SDS011;61956;52.540;13.382;2022-10-30T07:54:25;6.45;;;2.47;;
73661;SDS011;61956;52.540;13.382;2022-10-30T07:56:56;11.13;;;3.20;;
73661;SDS011;61956;52.540;13.382;2022-10-30T07:59:48;6.20;;;2.00;;
73661;SDS011;61956;52.540;13.382;2022-10-30T08:02:37;8.82;;;2.17;;
73661;SDS011;61956;52.540;13.382;2022-10-30T08:05:28;6.87;;;2.33;;
73661;SDS011;61956;52.540;13.382;2022-10-30T08:08:09;7.38;;;2.33;;
73661;SDS011;61956;52.540;13.382;2022-10-30T08:10:39;6.38;;;2.67;;
73661;SDS011;61956;52.540;13.382;2022-10-30T08:13:08;11.95;;;4.15;;
73661;SDS011;61956;52.540;13.382;2022-10-30T08:15:38;15.35;;;6.38;;
73661;SDS011;61956;52.540;13.382;2022-10-30T08:18:09;66.78;;;21.77;;
73661;SDS011;61956;52.540;13.382;2022-10-30T08:20:43;84.57;;;27.38;;
73661;SDS011;61956;52.540;13.382;2022-10-30T08:23:17;19.20;;;5.85;;
73661;SDS011;61956;52.540;13.382;2022-10-30T08:25:47;6.72;;;3.15;;
73661;SDS011;61956;52.540;13.382;2022-10-30T08:28:16;8.07;;;3.40;;
73661;SDS011;61956;52.540;13.382;2022-10-30T08:30:45;6.73;;;2.37;;
73661;SDS011;61956;52.540;13.382;2022-10-30T08:33:19;9.95;;;4.45;;
73661;SDS011;61956;52.540;13.382;2022-10-30T08:36:11;9.65;;;3.53;;
73661;SDS011;61956;52.540;13.382;2022-10-30T08:38:40;5.85;;;2.08;;
73661;SDS011;61956;52.540;13.382;2022-10-30T08:41:22;9.60;;;2.58;;
73661;SDS011;61956;52.540;13.382;2022-10-30T08:43:51;9.63;;;5.07;;
73661;SDS011;61956;52.540;13.382;2022-10-30T08:46:23;14.65;;;6.50;;
73661;SDS011;61956;52.540;13.382;2022-10-30T08:48:53;9.23;;;3.55;;
73661;SDS011;61956;52.540;13.382;2022-10-30T08:51:25;6.22;;;2.42;;
73661;SDS011;61956;52.540;13.382;2022-10-30T08:53:59;7.97;;;2.22;;
73661;SDS011;61956;52.540;13.382;2022-10-30T08:56:29;9.48;;;3.85;;
73661;SDS011;61956;52.540;13.382;2022-10-30T08:59:06;5.85;;;2.45;;
73661;SDS011;61956;52.540;13.382;2022-10-30T09:01:35;7.97;;;2.38;;
73661;SDS011;61956;52.540;13.382;2022-10-30T09:04:17;7.32;;;2.30;;
73661;SDS011;61956;52.540;13.382;2022-10-30T09:07:07;7.65;;;3.03;;
73661;SDS011;61956;52.540;13.382;2022-10-30T09:09:36;8.20;;;2.57;;
73661;SDS011;61956;52.540;13.382;2022-10-30T09:12:06;8.65;;;1.90;;
73661;SDS011;61956;52.540;13.382;2022-10-30T09:14:44;9.05;;;2.25;;
73661;SDS011;61956;52.540;13.382;2022-10-30T09:17:13;12.13;;;4.13;;
73661;SDS011;61956;52.540;13.382;2022-10-30T09:19:44;13.55;;;4.32;;
73661;SDS011;61956;52.540;13.382;2022-10-30T09:22:22;6.43;;;2.70;;
73661;SDS011;61956;52.540;13.382;2022-10-30T09:24:51;6.45;;;2.88;;
73661;SDS011;61956;52.540;13.382;2022-10-30T09:27:39;13.55;;;5.65;;
73661;SDS011;61956;52.540;13.382;2022-10-30T09:30:10;8.18;;;3.35;;
73661;SDS011;61956;52.540;13.382;2022-10-30T09:32:43;7.80;;;2.75;;
73661;SDS011;61956;52.540;13.382;2022-10-30T09:35:17;23.30;;;10.70;;
73661;SDS011;61956;52.540;13.382;2022-10-30T09:37:50;17.67;;;5.93;;
73661;SDS011;61956;52.540;13.382;2022-10-30T09:40:21;11.88;;;5.57;;
73661;SDS011;61956;52.540;13.382;2022-10-30T09:43:02;15.70;;;7.32;;
73661;SDS011;61956;52.540;13.382;2022-10-30T09:46:00;8.40;;;3.28;;
73661;SDS011;61956;52.540;13.382;2022-10-30T09:49:06;9.30;;;2.87;;
73661;SDS011;61956;52.540;13.382;2022-10-30T09:51:57;6.45;;;2.08;;
73661;SDS011;61956;52.540;13.382;2022-10-30T09:54:58;6.70;;;1.73;;
73661;SDS011;61956;52.540;13.382;2022-10-30T09:57:49;7.22;;;1.75;;
73661;SDS011;61956;52.540;13.382;2022-10-30T10:00:33;6.20;;;2.47;;
73661;SDS011;61956;52.540;13.382;2022-10-30T10:03:20;9.25;;;3.08;;
73661;SDS011;61956;52.540;13.382;2022-10-30T10:06:45;15.45;;;5.75;;
73661;SDS011;61956;52.540;13.382;2022-10-30T10:09:53;12.30;;;3.33;;
73661;SDS011;61956;52.540;13.382;2022-10-30T10:12:47;13.75;;;3.30;;
73661;SDS011;61956;52.540;13.382;2022-10-30T10:15:22;9.35;;;3.47;;
73661;SDS011;61956;52.540;13.382;2022-10-30T10:18:06;10.53;;;2.60;;
73661;SDS011;61956;52.540;13.382;2022-10-30T10:20:46;12.80;;;2.47;;
73661;SDS011;61956;52.540;13.382;2022-10-30T10:23:24;6.63;;;1.98;;
73661;SDS011;61956;52.540;13.382;2022-10-30T10:26:04;9.88;;;3.80;;
73661;SDS011;61956;52.540;13.382;2022-10-30T10:28:51;10.93;;;3.97;;
73661;SDS011;61956;52.540;13.382;2022-10-30T10:31:39;11.70;;;3.80;;
73661;SDS011;61956;52.540;13.382;2022-10-30T10:34:25;8.55;;;2.05;;
73661;SDS011;61956;52.540;13.382;2022-10-30T10:37:18;4.88;;;1.65;;
73661;SDS011;61956;52.540;13.382;2022-10-30T10:43:09;6.43;;;1.60;;
73661;SDS011;61956;52.540;13.382;2022-10-30T10:45:54;5.25;;;1.70;;
73661;SDS011;61956;52.540;13.382;2022-10-30T10:48:50;7.40;;;2.38;;
73661;SDS011;61956;52.540;13.382;2022-10-30T10:51:33;9.32;;;2.28;;
73661;SDS011;61956;52.540;13.382;2022-10-30T10:54:09;5.85;;;2.03;;
73661;SDS011;61956;52.540;13.382;2022-10-30T10:56:46;7.13;;;2.13;;
73661;SDS011;61956;52.540;13.382;2022-10-30T10:59:22;9.23;;;2.03;;
73661;SDS011;61956;52.540;13.382;2022-10-30T11:02:21;7.20;;;1.80;;
73661;SDS011;61956;52.540;13.382;2022-10-30T11:05:06;8.05;;;1.70;;
73661;SDS011;61956;52.540;13.382;2022-10-30T11:07:44;6.22;;;1.77;;
73661;SDS011;61956;52.540;13.382;2022-10-30T11:10:17;4.78;;;1.80;;
73661;SDS011;61956;52.540;13.382;2022-10-30T11:12:48;11.55;;;2.80;;
73661;SDS011;61956;52.540;13.382;2022-10-30T11:15:25;9.85;;;1.85;;
73661;SDS011;61956;52.540;13.382;2022-10-30T11:18:05;9.25;;;2.08;;
73661;SDS011;61956;52.540;13.382;2022-10-30T11:20:38;7.93;;;2.88;;
73661;SDS011;61956;52.540;13.382;2022-10-30T11:23:29;5.60;;;2.03;;
73661;SDS011;61956;52.540;13.382;2022-10-30T11:29:12;5.65;;;2.17;;
73661;SDS011;61956;52.540;13.382;2022-10-30T11:32:00;7.13;;;2.30;;
73661;SDS011;61956;52.540;13.382;2022-10-30T11:34:33;6.78;;;1.50;;
73661;SDS011;61956;52.540;13.382;2022-10-30T11:37:04;7.63;;;1.88;;
73661;SDS011;61956;52.540;13.382;2022-10-30T11:39:36;5.40;;;1.90;;
73661;SDS011;61956;52.540;13.382;2022-10-30T11:42:06;7.15;;;2.05;;
73661;SDS011;61956;52.540;13.382;2022-10-30T11:44:43;9.27;;;1.83;;
73661;SDS011;61956;52.540;13.382;2022-10-30T11:47:19;7.78;;;1.77;;
73661;SDS011;61956;52.540;13.382;2022-10-30T11:49:58;6.55;;;1.90;;
73661;SDS011;61956;52.540;13.382;2022-10-30T11:52:29;9.10;;;1.73;;
73661;SDS011;61956;52.540;13.382;2022-10-30T11:55:09;7.35;;;1.75;;
73661;SDS011;61956;52.540;13.382;2022-10-30T11:57:44;6.28;;;1.52;;
73661;SDS011;61956;52.540;13.382;2022-10-30T12:00:18;5.45;;;1.38;;
73661;SDS011;61956;52.540;13.382;2022-10-30T12:02:53;7.13;;;1.63;;
73661;SDS011;61956;52.540;13.382;2022-10-30T12:08:16;5.30;;;1.42;;
73661;SDS011;61956;52.540;13.382;2022-10-30T12:10:58;6.07;;;1.65;;
73661;SDS011;61956;52.540;13.382;2022-10-30T12:13:31;5.75;;;1.52;;
73661;SDS011;61956;52.540;13.382;2022-10-30T12:16:07;5.30;;;1.50;;
73661;SDS011;61956;52.540;13.382;2022-10-30T12:18:53;5.10;;;1.67;;
73661;SDS011;61956;52.540;13.382;2022-10-30T12:21:29;4.72;;;1.70;;
73661;SDS011;61956;52.540;13.382;2022-10-30T12:24:04;6.82;;;1.08;;
73661;SDS011;61956;52.540;13.382;2022-10-30T12:26:45;6.03;;;1.50;;
73661;SDS011;61956;52.540;13.382;2022-10-30T12:29:18;6.13;;;1.48;;
73661;SDS011;61956;52.540;13.382;2022-10-30T12:31:54;6.67;;;1.93;;
73661;SDS011;61956;52.540;13.382;2022-10-30T12:34:34;6.50;;;1.50;;
73661;SDS011;61956;52.540;13.382;2022-10-30T12:37:12;5.97;;;2.17;;
73661;SDS011;61956;52.540;13.382;2022-10-30T12:39:52;10.75;;;1.75;;
73661;SDS011;61956;52.540;13.382;2022-10-30T12:42:29;7.78;;;2.38;;
73661;SDS011;61956;52.540;13.382;2022-10-30T12:45:07;5.80;;;1.23;;
73661;SDS011;61956;52.540;13.382;2022-10-30T12:47:44;4.88;;;1.80;;
73661;SDS011;61956;52.540;13.382;2022-10-30T12:50:24;5.07;;;1.27;;
73661;SDS011;61956;52.540;13.382;2022-10-30T12:53:01;4.93;;;1.80;;
73661;SDS011;61956;52.540;13.382;2022-10-30T12:55:36;5.25;;;1.48;;
73661;SDS011;61956;52.540;13.382;2022-10-30T12:58:14;4.00;;;1.30;;
73661;SDS011;61956;52.540;13.382;2022-10-30T13:00:52;4.28;;;1.40;;
73661;SDS011;61956;52.540;13.382;2022-10-30T13:03:29;4.88;;;1.40;;
73661;SDS011;61956;52.540;13.382;2022-10-30T13:06:08;11.82;;;1.88;;
73661;SDS011;61956;52.540;13.382;2022-10-30T13:08:47;5.43;;;1.65;;
73661;SDS011;61956;52.540;13.382;2022-10-30T13:11:32;4.25;;;1.30;;
73661;SDS011;61956;52.540;13.382;2022-10-30T13:14:10;7.72;;;1.98;;
73661;SDS011;61956;52.540;13.382;2022-10-30T13:16:46;8.65;;;1.75;;
73661;SDS011;61956;52.540;13.382;2022-10-30T13:19:19;6.38;;;1.70;;
73661;SDS011;61956;52.540;13.382;2022-10-30T13:21:51;8.88;;;1.92;;
73661;SDS011;61956;52.540;13.382;2022-10-30T13:24:33;9.97;;;1.80;;
73661;SDS011;61956;52.540;13.382;2022-10-30T13:27:17;3.75;;;1.10;;
73661;SDS011;61956;52.540;13.382;2022-10-30T13:29:56;7.13;;;1.40;;
73661;SDS011;61956;52.540;13.382;2022-10-30T13:32:34;5.78;;;1.48;;
73661;SDS011;61956;52.540;13.382;2022-10-30T13:35:20;5.32;;;1.70;;
73661;SDS011;61956;52.540;13.382;2022-10-30T13:38:05;12.27;;;3.17;;
73661;SDS011;61956;52.540;13.382;2022-10-30T13:40:57;8.68;;;2.17;;
73661;SDS011;61956;52.540;13.382;2022-10-30T13:43:38;5.70;;;1.70;;
73661;SDS011;61956;52.540;13.382;2022-10-30T13:46:20;8.93;;;2.30;;
73661;SDS011;61956;52.540;13.382;2022-10-30T13:49:14;10.15;;;1.60;;
73661;SDS011;61956;52.540;13.382;2022-10-30T13:52:03;8.23;;;2.13;;
73661;SDS011;61956;52.540;13.382;2022-10-30T13:54:44;5.85;;;1.40;;
73661;SDS011;61956;52.540;13.382;2022-10-30T13:57:25;5.30;;;1.52;;
73661;SDS011;61956;52.540;13.382;2022-10-30T14:00:04;5.13;;;1.58;;
73661;SDS011;61956;52.540;13.382;2022-10-30T14:02:52;4.78;;;1.55;;
73661;SDS011;61956;52.540;13.382;2022-10-30T14:05:52;4.83;;;1.50;;
73661;SDS011;61956;52.540;13.382;2022-10-30T14:08:32;6.18;;;1.23;;
73661;SDS011;61956;52.540;13.382;2022-10-30T14:11:19;7.38;;;1.60;;
73661;SDS011;61956;52.540;13.382;2022-10-30T14:13:54;5.32;;;1.65;;
73661;SDS011;61956;52.540;13.382;2022-10-30T14:16:38;4.13;;;1.30;;
73661;SDS011;61956;52.540;13.382;2022-10-30T14:19:10;4.17;;;1.40;;
73661;SDS011;61956;52.540;13.382;2022-10-30T14:21:49;10.95;;;1.98;;
73661;SDS011;61956;52.540;13.382;2022-10-30T14:24:21;4.00;;;1.17;;
73661;SDS011;61956;52.540;13.382;2022-10-30T14:27:08;7.30;;;1.30;;
73661;SDS011;61956;52.540;13.382;2022-10-30T14:29:45;7.45;;;2.00;;
73661;SDS011;61956;52.540;13.382;2022-10-30T14:32:33;4.80;;;1.33;;
73661;SDS011;61956;52.540;13.382;2022-10-30T14:41:01;6.15;;;1.75;;
73661;SDS011;61956;52.540;13.382;2022-10-30T14:44:29;3.50;;;1.00;;
73661;SDS011;61956;52.540;13.382;2022-10-30T14:47:39;7.17;;;1.93;;
73661;SDS011;61956;52.540;13.382;2022-10-30T14:50:21;9.13;;;1.70;;
73661;SDS011;61956;52.540;13.382;2022-10-30T14:56:08;5.00;;;1.73;;
73661;SDS011;61956;52.540;13.382;2022-10-30T14:59:08;5.10;;;1.60;;
73661;SDS011;61956;52.540;13.382;2022-10-30T15:02:09;7.67;;;1.20;;
73661;SDS011;61956;52.540;13.382;2022-10-30T15:05:04;8.13;;;1.50;;
73661;SDS011;61956;52.540;13.382;2022-10-30T15:07:59;5.03;;;1.38;;
73661;SDS011;61956;52.540;13.382;2022-10-30T15:11:03;4.90;;;1.42;;
73661;SDS011;61956;52.540;13.382;2022-10-30T15:13:57;5.88;;;1.95;;
73661;SDS011;61956;52.540;13.382;2022-10-30T15:16:34;8.80;;;2.33;;
73661;SDS011;61956;52.540;13.382;2022-10-30T15:19:08;4.85;;;1.63;;
73661;SDS011;61956;52.540;13.382;2022-10-30T15:21:43;6.55;;;1.50;;
73661;SDS011;61956;52.540;13.382;2022-10-30T15:24:17;12.25;;;2.70;;
73661;SDS011;61956;52.540;13.382;2022-10-30T15:26:51;9.70;;;2.10;;
73661;SDS011;61956;52.540;13.382;2022-10-30T15:29:26;6.87;;;1.87;;
73661;SDS011;61956;52.540;13.382;2022-10-30T15:32:02;11.88;;;3.95;;
73661;SDS011;61956;52.540;13.382;2022-10-30T15:34:50;8.40;;;2.05;;
73661;SDS011;61956;52.540;13.382;2022-10-30T15:37:24;5.75;;;2.28;;
73661;SDS011;61956;52.540;13.382;2022-10-30T15:42:44;8.90;;;2.97;;
73661;SDS011;61956;52.540;13.382;2022-10-30T15:45:16;43.47;;;19.02;;
73661;SDS011;61956;52.540;13.382;2022-10-30T15:47:55;22.25;;;11.13;;
73661;SDS011;61956;52.540;13.382;2022-10-30T15:50:31;24.40;;;12.30;;